createdAt,value
2023-12-09T00:02:13.471Z,97565.06
2023-12-09T00:04:41.172Z,97570.97
2023-12-09T00:07:07.998Z,97569.16
2023-12-09T00:09:34.735Z,97575.13
2023-12-09T00:12:01.459Z,97570.78
2023-12-09T00:14:28.517Z,97574.47
2023-12-09T00:16:55.301Z,97578.56
2023-12-09T00:19:22.050Z,97572.94
2023-12-09T00:21:48.845Z,97567.28
2023-12-09T00:24:15.559Z,97574.47
2023-12-09T00:26:42.283Z,97571.31
2023-12-09T00:29:08.966Z,97577.63
2023-12-09T00:31:35.690Z,97571.91
2023-12-09T00:34:02.592Z,97573.97
2023-12-09T00:36:29.449Z,97569.47
2023-12-09T00:38:56.391Z,97569.34
2023-12-09T00:41:23.409Z,97561.94
2023-12-09T00:43:50.124Z,97564.81
2023-12-09T00:46:16.910Z,97564.53
2023-12-09T00:48:43.714Z,97564.41
2023-12-09T00:51:10.608Z,97558.78
2023-12-09T00:53:37.292Z,97560.84
2023-12-09T00:56:03.984Z,97560.28
2023-12-09T00:58:30.885Z,97554.03
2023-12-09T01:00:57.553Z,97546.25
2023-12-09T01:03:24.264Z,97554.19
2023-12-09T01:05:51.057Z,97553.94
2023-12-09T01:08:17.746Z,97553.38
2023-12-09T01:10:44.592Z,97556.56
2023-12-09T01:13:11.266Z,97558.88
2023-12-09T01:15:38.177Z,97552.72
2023-12-09T01:18:04.923Z,97559.50
2023-12-09T01:20:31.952Z,97557.00
2023-12-09T01:22:58.798Z,97552.63
2023-12-09T01:25:25.475Z,97559.22
2023-12-09T01:27:52.177Z,97556.34
2023-12-09T01:30:19.104Z,97552.41
2023-12-09T01:32:45.966Z,97555.56
2023-12-09T01:35:12.767Z,97545.84
2023-12-09T01:37:39.442Z,97548.31
2023-12-09T01:40:06.088Z,97545.59
2023-12-09T01:42:32.800Z,97535.06
2023-12-09T01:44:59.589Z,97538.53
2023-12-09T01:47:26.328Z,97539.44
2023-12-09T01:49:53.227Z,97535.88
2023-12-09T01:52:19.950Z,97526.13
2023-12-09T01:54:46.579Z,97542.31
2023-12-09T01:57:13.293Z,97539.38
2023-12-09T01:59:40.108Z,97533.94
2023-12-09T02:02:06.967Z,97537.38
2023-12-09T02:04:33.836Z,97533.09
2023-12-09T02:07:00.622Z,97531.34
2023-12-09T02:09:27.303Z,97529.69
2023-12-09T02:11:54.142Z,97529.59
2023-12-09T02:14:20.853Z,97523.06
2023-12-09T02:16:47.675Z,97529.28
2023-12-09T02:19:14.585Z,97531.97
2023-12-09T02:21:41.281Z,97521.09
2023-12-09T02:24:08.115Z,97515.53
2023-12-09T02:26:34.873Z,97515.81
2023-12-09T02:29:01.553Z,97511.59
2023-12-09T02:31:28.317Z,97514.88
2023-12-09T02:33:55.098Z,97509.16
2023-12-09T02:36:21.801Z,97515.16
2023-12-09T02:38:48.550Z,97522.94
2023-12-09T02:41:15.293Z,97520.88
2023-12-09T02:43:41.949Z,97518.94
2023-12-09T02:46:08.579Z,97509.38
2023-12-09T02:48:35.367Z,97509.69
2023-12-09T02:51:02.488Z,97514.59
2023-12-09T02:53:29.153Z,97512.13
2023-12-09T02:55:56.050Z,97512.41
2023-12-09T02:58:22.800Z,97515.97
2023-12-09T03:00:49.489Z,97512.69
2023-12-09T03:03:16.384Z,97515.69
2023-12-09T03:05:43.076Z,97514.84
2023-12-09T03:08:09.881Z,97518.28
2023-12-09T03:10:36.556Z,97521.28
2023-12-09T03:13:03.215Z,97516.56
2023-12-09T03:15:30.162Z,97516.31
2023-12-09T03:17:57.032Z,97522.00
2023-12-09T03:20:23.724Z,97529.56
2023-12-09T03:22:50.518Z,97533.41
2023-12-09T03:25:17.198Z,97536.25
2023-12-09T03:27:43.993Z,97543.50
2023-12-09T03:30:10.659Z,97532.84
2023-12-09T03:32:38.096Z,97532.03
2023-12-09T03:35:04.938Z,97529.28
2023-12-09T03:37:31.682Z,97533.81
2023-12-09T03:39:58.378Z,97534.25
2023-12-09T03:42:25.324Z,97537.66
2023-12-09T03:44:52.219Z,97540.81
2023-12-09T03:47:25.951Z,97537.59
2023-12-09T03:49:56.227Z,97540.09
2023-12-09T03:52:23.436Z,97540.25
2023-12-09T03:54:50.101Z,97538.38
2023-12-09T03:57:16.843Z,97546.59
2023-12-09T03:59:43.582Z,97536.75
2023-12-09T04:02:10.341Z,97533.44
2023-12-09T04:04:37.148Z,97535.91
2023-12-09T04:07:03.844Z,97542.19
2023-12-09T04:09:30.619Z,97541.38
2023-12-09T04:11:57.389Z,97540.56
2023-12-09T04:14:24.177Z,97549.06
2023-12-09T04:16:50.804Z,97549.88
2023-12-09T04:19:17.663Z,97543.56
2023-12-09T04:21:44.606Z,97558.78
2023-12-09T04:24:11.285Z,97559.59
2023-12-09T04:26:37.936Z,97558.69
2023-12-09T04:29:04.815Z,97560.81
2023-12-09T04:31:31.506Z,97562.00
2023-12-09T04:33:58.221Z,97564.59
2023-12-09T04:36:25.029Z,97571.03
2023-12-09T04:38:51.753Z,97568.16
2023-12-09T04:41:18.410Z,97569.94
2023-12-09T04:43:46.483Z,97569.41
2023-12-09T04:46:13.109Z,97568.19
2023-12-09T04:48:40.215Z,97574.34
2023-12-09T04:51:06.973Z,97575.56
2023-12-09T04:53:33.663Z,97571.19
2023-12-09T04:56:00.408Z,97576.81
2023-12-09T04:58:27.076Z,97579.25
2023-12-09T05:00:53.816Z,97581.31
2023-12-09T05:03:20.564Z,97577.19
2023-12-09T05:05:47.328Z,97576.34
2023-12-09T05:08:13.953Z,97591.91
2023-12-09T05:10:40.594Z,97599.72
2023-12-09T05:13:07.374Z,97593.84
2023-12-09T05:15:34.187Z,97594.91
2023-12-09T05:18:00.996Z,97589.28
2023-12-09T05:20:27.933Z,97591.47
2023-12-09T05:22:54.608Z,97590.28
2023-12-09T05:25:21.492Z,97595.06
2023-12-09T05:27:48.223Z,97595.63
2023-12-09T05:30:14.894Z,97593.06
2023-12-09T05:32:41.656Z,97591.81
2023-12-09T05:35:08.454Z,97596.75
2023-12-09T05:37:35.181Z,97600.19
2023-12-09T05:40:01.834Z,97605.66
2023-12-09T05:42:28.834Z,97596.63
2023-12-09T05:44:55.710Z,97598.94
2023-12-09T05:47:22.504Z,97601.81
2023-12-09T05:49:49.660Z,97592.22
2023-12-09T05:52:16.539Z,97599.47
2023-12-09T05:54:43.369Z,97601.53
2023-12-09T05:57:10.167Z,97600.13
2023-12-09T05:59:37.553Z,97605.28
2023-12-09T06:02:04.275Z,97606.13
2023-12-09T06:04:31.051Z,97601.22
2023-12-09T06:06:57.899Z,97595.91
2023-12-09T06:09:25.035Z,97597.97
2023-12-09T06:11:51.729Z,97602.34
2023-12-09T06:14:18.436Z,97603.00
2023-12-09T06:16:45.061Z,97605.78
2023-12-09T06:19:11.784Z,97609.00
2023-12-09T06:21:38.869Z,97611.88
2023-12-09T06:24:05.584Z,97612.47
2023-12-09T06:26:32.282Z,97600.56
2023-12-09T06:28:58.930Z,97601.38
2023-12-09T06:31:25.742Z,97593.84
2023-12-09T06:33:52.581Z,97597.06
2023-12-09T06:36:19.257Z,97596.81
2023-12-09T06:38:46.111Z,97598.78
2023-12-09T06:41:12.794Z,97602.63
2023-12-09T06:43:39.416Z,97599.88
2023-12-09T06:46:06.038Z,97605.06
2023-12-09T06:48:32.887Z,97612.31
2023-12-09T06:50:59.686Z,97605.34
2023-12-09T06:53:26.535Z,97607.53
2023-12-09T06:55:53.431Z,97609.84
2023-12-09T06:58:20.120Z,97606.28
2023-12-09T07:00:46.941Z,97614.19
2023-12-09T07:03:13.782Z,97617.44
2023-12-09T07:05:40.546Z,97604.09
2023-12-09T07:08:07.273Z,97613.09
2023-12-09T07:10:34.031Z,97612.47
2023-12-09T07:13:00.747Z,97602.25
2023-12-09T07:15:27.555Z,97598.81
2023-12-09T07:17:54.484Z,97604.66
2023-12-09T07:20:21.191Z,97605.59
2023-12-09T07:22:47.897Z,97605.91
2023-12-09T07:25:14.582Z,97606.63
2023-12-09T07:27:41.418Z,97604.00
2023-12-09T07:30:08.074Z,97610.84
2023-12-09T07:32:34.977Z,97606.91
2023-12-09T07:35:01.792Z,97614.97
2023-12-09T07:37:28.744Z,97614.56
2023-12-09T07:39:55.578Z,97605.28
2023-12-09T07:42:22.232Z,97605.28
2023-12-09T07:44:49.088Z,97604.06
2023-12-09T07:47:15.813Z,97594.75
2023-12-09T07:49:42.569Z,97603.78
2023-12-09T07:52:09.245Z,97604.06
2023-12-09T07:54:35.980Z,97599.25
2023-12-09T07:57:02.766Z,97607.59
2023-12-09T07:59:29.437Z,97607.47
2023-12-09T08:01:56.363Z,97608.28
2023-12-09T08:04:23.066Z,97613.88
2023-12-09T08:06:50.488Z,97602.78
2023-12-09T08:09:17.417Z,97603.47
2023-12-09T08:11:44.290Z,97608.81
2023-12-09T08:14:11.314Z,97609.22
2023-12-09T08:16:40.768Z,97606.50
2023-12-09T08:19:07.456Z,97609.28
2023-12-09T08:21:34.248Z,97612.00
2023-12-09T08:24:01.100Z,97616.63
2023-12-09T08:26:27.792Z,97601.00
2023-12-09T08:28:54.427Z,97608.25
2023-12-09T08:31:21.110Z,97607.00
2023-12-09T08:33:47.850Z,97609.91
2023-12-09T08:36:14.586Z,97611.44
2023-12-09T08:38:41.271Z,97610.31
2023-12-09T08:41:08.101Z,97619.75
2023-12-09T08:43:34.798Z,97616.16
2023-12-09T08:46:01.529Z,97616.31
2023-12-09T08:48:28.262Z,97620.53
2023-12-09T08:50:54.995Z,97626.97
2023-12-09T08:53:21.663Z,97632.69
2023-12-09T08:55:48.427Z,97638.75
2023-12-09T08:58:15.029Z,97629.03
2023-12-09T09:00:41.802Z,97631.66
2023-12-09T09:03:08.599Z,97637.81
2023-12-09T09:05:35.420Z,97635.34
2023-12-09T09:08:02.229Z,97637.84
2023-12-09T09:10:29.080Z,97635.78
2023-12-09T09:12:55.760Z,97623.69
2023-12-09T09:15:22.477Z,97628.38
2023-12-09T09:17:49.190Z,97632.72
2023-12-09T09:20:15.929Z,97620.19
2023-12-09T09:22:46.224Z,97608.56
2023-12-09T09:25:14.054Z,97610.19
2023-12-09T09:27:40.772Z,97610.47
2023-12-09T09:30:07.520Z,97610.25
2023-12-09T09:32:34.227Z,97607.28
2023-12-09T09:35:01.124Z,97607.47
2023-12-09T09:37:27.846Z,97608.00
2023-12-09T09:39:54.594Z,97607.63
2023-12-09T09:42:21.293Z,97613.31
2023-12-09T09:44:47.996Z,97608.06
2023-12-09T09:47:14.757Z,97608.69
2023-12-09T09:49:41.452Z,97598.66
2023-12-09T09:52:08.156Z,97594.03
2023-12-09T09:54:34.865Z,97593.44
2023-12-09T09:57:01.612Z,97591.25
2023-12-09T09:59:28.305Z,97582.59
2023-12-09T10:01:54.957Z,97570.44
2023-12-09T10:04:21.588Z,97566.41
2023-12-09T10:06:48.433Z,97567.38
2023-12-09T10:09:15.143Z,97570.28
2023-12-09T10:11:41.770Z,97557.63
2023-12-09T10:14:08.460Z,97557.06
2023-12-09T10:16:35.091Z,97554.84
2023-12-09T10:19:01.862Z,97548.06
2023-12-09T10:21:28.665Z,97551.91
2023-12-09T10:23:55.331Z,97537.97
2023-12-09T10:26:21.972Z,97534.53
2023-12-09T10:28:48.667Z,97529.13
2023-12-09T10:31:15.320Z,97532.34
2023-12-09T10:33:42.112Z,97527.34
2023-12-09T10:36:08.853Z,97530.53
2023-12-09T10:38:35.489Z,97517.97
2023-12-09T10:41:02.099Z,97523.50
2023-12-09T10:43:28.773Z,97512.69
2023-12-09T10:45:57.799Z,97505.25
2023-12-09T10:48:24.556Z,97495.66
2023-12-09T10:50:51.539Z,97499.53
2023-12-09T10:53:18.195Z,97492.56
2023-12-09T10:55:44.828Z,97493.34
2023-12-09T10:58:11.552Z,97479.00
2023-12-09T11:00:38.324Z,97486.03
2023-12-09T11:03:05.125Z,97476.59
2023-12-09T11:05:31.842Z,97478.38
2023-12-09T11:07:58.470Z,97484.44
2023-12-09T11:10:25.109Z,97477.38
2023-12-09T11:12:51.885Z,97470.22
2023-12-09T11:15:18.580Z,97472.78
2023-12-09T11:17:45.571Z,97471.34
2023-12-09T11:20:12.729Z,97460.97
2023-12-09T11:22:39.710Z,97465.06
2023-12-09T11:25:06.395Z,97462.50
2023-12-09T11:27:33.186Z,97468.59
2023-12-09T11:30:01.936Z,97471.06
2023-12-09T11:32:29.114Z,97462.13
2023-12-09T11:34:56.342Z,97454.50
2023-12-09T11:37:23.050Z,97452.72
2023-12-09T11:39:49.677Z,97454.84
2023-12-09T11:42:16.630Z,97452.09
2023-12-09T11:44:43.353Z,97437.94
2023-12-09T11:47:10.051Z,97437.19
2023-12-09T11:49:36.870Z,97433.19
2023-12-09T11:52:03.613Z,97427.00
2023-12-09T11:54:30.289Z,97415.78
2023-12-09T11:56:57.043Z,97412.53
2023-12-09T11:59:23.778Z,97410.03
2023-12-09T12:01:50.525Z,97402.56
2023-12-09T12:04:17.277Z,97409.88
2023-12-09T12:06:43.969Z,97400.78
2023-12-09T12:09:10.630Z,97407.75
2023-12-09T12:11:37.338Z,97398.31
2023-12-09T12:14:04.119Z,97397.91
2023-12-09T12:16:30.746Z,97393.25
2023-12-09T12:18:57.625Z,97395.94
2023-12-09T12:21:24.461Z,97396.38
2023-12-09T12:23:51.127Z,97394.22
2023-12-09T12:26:17.797Z,97392.84
2023-12-09T12:28:44.559Z,97400.63
2023-12-09T12:31:11.203Z,97399.59
2023-12-09T12:33:38.028Z,97407.13
2023-12-09T12:36:04.852Z,97400.78
2023-12-09T12:38:31.594Z,97395.88
2023-12-09T12:40:58.606Z,97397.69
2023-12-09T12:43:25.378Z,97399.06
2023-12-09T12:45:52.170Z,97392.75
2023-12-09T12:48:19.090Z,97397.38
2023-12-09T12:50:45.901Z,97398.91
2023-12-09T12:53:12.541Z,97397.50
2023-12-09T12:55:39.259Z,97395.47
2023-12-09T12:58:06.070Z,97390.75
2023-12-09T13:00:32.848Z,97390.28
2023-12-09T13:02:59.679Z,97388.34
2023-12-09T13:05:26.316Z,97391.13
2023-12-09T13:07:52.983Z,97392.47
2023-12-09T13:10:19.778Z,97393.09
2023-12-09T13:12:46.511Z,97396.34
2023-12-09T13:15:13.462Z,97390.63
2023-12-09T13:17:40.208Z,97383.91
2023-12-09T13:20:07.074Z,97382.13
2023-12-09T13:22:33.816Z,97386.69
2023-12-09T13:25:01.593Z,97382.28
2023-12-09T13:27:29.190Z,97376.88
2023-12-09T13:29:55.931Z,97386.59
2023-12-09T13:32:22.610Z,97385.91
2023-12-09T13:34:49.479Z,97380.72
2023-12-09T13:37:16.335Z,97380.19
2023-12-09T13:39:43.146Z,97373.78
2023-12-09T13:42:09.889Z,97367.44
2023-12-09T13:44:39.013Z,97363.44
2023-12-09T13:47:07.405Z,97361.16
2023-12-09T13:49:34.088Z,97355.00
2023-12-09T13:52:00.801Z,97360.53
2023-12-09T13:54:27.650Z,97353.81
2023-12-09T13:56:54.301Z,97358.53
2023-12-09T13:59:20.958Z,97349.13
2023-12-09T14:01:47.643Z,97356.22
2023-12-09T14:04:14.283Z,97349.44
2023-12-09T14:06:40.963Z,97350.56
2023-12-09T14:09:07.672Z,97353.59
2023-12-09T14:11:34.317Z,97355.31
2023-12-09T14:14:00.959Z,97349.50
2023-12-09T14:16:27.683Z,97351.63
2023-12-09T14:18:54.504Z,97357.41
2023-12-09T14:21:21.168Z,97360.16
2023-12-09T14:23:48.303Z,97371.84
2023-12-09T14:26:14.952Z,97369.75
2023-12-09T14:28:41.577Z,97369.31
2023-12-09T14:31:08.275Z,97367.75
2023-12-09T14:33:35.047Z,97360.13
2023-12-09T14:36:02.288Z,97360.34
2023-12-09T14:38:29.033Z,97363.44
2023-12-09T14:40:55.661Z,97370.34
2023-12-09T14:43:22.309Z,97358.91
2023-12-09T14:45:49.052Z,97361.50
2023-12-09T14:48:15.960Z,97360.53
2023-12-09T14:50:42.797Z,97352.25
2023-12-09T14:53:09.504Z,97348.72
2023-12-09T14:55:36.109Z,97348.09
2023-12-09T14:58:02.754Z,97345.63
2023-12-09T15:00:29.555Z,97334.84
2023-12-09T15:02:56.229Z,97342.94
2023-12-09T15:05:22.960Z,97341.63
2023-12-09T15:07:49.692Z,97340.94
2023-12-09T15:10:16.634Z,97338.34
2023-12-09T15:12:43.302Z,97335.53
2023-12-09T15:15:10.049Z,97334.94
2023-12-09T15:17:38.494Z,97339.84
2023-12-09T15:20:05.620Z,97346.41
2023-12-09T15:22:32.404Z,97333.97
2023-12-09T15:24:59.238Z,97328.31
2023-12-09T15:27:26.039Z,97323.50
2023-12-09T15:29:52.983Z,97321.38
2023-12-09T15:32:19.720Z,97326.38
2023-12-09T15:34:46.435Z,97323.19
2023-12-09T15:37:13.262Z,97322.97
2023-12-09T15:39:39.939Z,97319.84
2023-12-09T15:42:06.686Z,97318.19
2023-12-09T15:44:33.557Z,97320.44
2023-12-09T15:47:00.368Z,97318.56
2023-12-09T15:49:27.330Z,97324.16
2023-12-09T15:51:54.153Z,97330.50
2023-12-09T15:54:20.871Z,97333.81
2023-12-09T15:56:47.520Z,97332.63
2023-12-09T15:59:14.406Z,97323.50
2023-12-09T16:01:41.320Z,97317.69
2023-12-09T16:04:08.052Z,97315.19
2023-12-09T16:06:34.840Z,97314.91
2023-12-09T16:09:01.504Z,97315.44
2023-12-09T16:11:28.162Z,97309.59
2023-12-09T16:13:54.864Z,97315.38
2023-12-09T16:16:21.505Z,97309.38
2023-12-09T16:18:48.379Z,97312.00
2023-12-09T16:21:15.143Z,97316.34
2023-12-09T16:23:42.165Z,97319.00
2023-12-09T16:26:08.826Z,97316.06
2023-12-09T16:28:35.781Z,97316.19
2023-12-09T16:31:02.844Z,97311.44
2023-12-09T16:33:29.856Z,97297.66
2023-12-09T16:35:56.702Z,97286.44
2023-12-09T16:38:23.350Z,97292.59
2023-12-09T16:40:50.133Z,97297.38
2023-12-09T16:43:16.868Z,97308.72
2023-12-09T16:45:43.632Z,97311.72
2023-12-09T16:48:10.389Z,97324.84
2023-12-09T16:50:37.318Z,97325.00
2023-12-09T16:53:04.162Z,97322.91
2023-12-09T16:55:30.879Z,97323.78
2023-12-09T16:57:57.617Z,97321.91
2023-12-09T17:00:24.482Z,97303.81
2023-12-09T17:02:51.248Z,97315.94
2023-12-09T17:05:18.154Z,97310.72
2023-12-09T17:07:45.075Z,97310.16
2023-12-09T17:10:11.865Z,97297.31
2023-12-09T17:12:38.601Z,97287.84
2023-12-09T17:15:05.407Z,97297.84
2023-12-09T17:17:32.904Z,97281.38
2023-12-09T17:19:59.693Z,97264.06
2023-12-09T17:22:26.664Z,97257.31
2023-12-09T17:24:53.757Z,97251.28
2023-12-09T17:27:20.706Z,97242.41
2023-12-09T17:29:47.447Z,97240.34
2023-12-09T17:32:14.228Z,97235.97
2023-12-09T17:34:41.001Z,97238.66
2023-12-09T17:37:07.826Z,97229.28
2023-12-09T17:39:34.518Z,97228.78
2023-12-09T17:42:01.431Z,97227.16
2023-12-09T17:44:28.185Z,97221.28
2023-12-09T17:46:54.858Z,97233.56
2023-12-09T17:49:21.876Z,97223.28
2023-12-09T17:51:48.666Z,97206.25
2023-12-09T17:54:15.370Z,97193.78
2023-12-09T17:56:42.078Z,97196.44
2023-12-09T17:59:08.797Z,97181.81
2023-12-09T18:01:35.554Z,97179.84
2023-12-09T18:04:02.404Z,97159.22
2023-12-09T18:06:29.134Z,97150.50
2023-12-09T18:08:55.837Z,97157.91
2023-12-09T18:11:22.613Z,97158.97
2023-12-09T18:13:49.491Z,97160.16
2023-12-09T18:16:16.161Z,97143.56
2023-12-09T18:18:42.952Z,97144.09
2023-12-09T18:21:09.654Z,97147.91
2023-12-09T18:23:36.348Z,97138.19
2023-12-09T18:26:03.380Z,97136.47
2023-12-09T18:28:30.122Z,97127.97
2023-12-09T18:30:57.033Z,97140.03
2023-12-09T18:33:23.927Z,97135.38
2023-12-09T18:35:50.691Z,97131.88
2023-12-09T18:38:17.346Z,97131.41
2023-12-09T18:40:44.133Z,97123.59
2023-12-09T18:43:10.877Z,97114.44
2023-12-09T18:45:37.717Z,97114.41
2023-12-09T18:48:04.606Z,97114.44
2023-12-09T18:50:31.508Z,97110.75
2023-12-09T18:52:58.247Z,97102.44
2023-12-09T18:55:25.136Z,97099.53
2023-12-09T18:57:51.915Z,97111.06
2023-12-09T19:00:18.622Z,97115.66
2023-12-09T19:02:45.558Z,97115.31
2023-12-09T19:05:12.331Z,97106.66
2023-12-09T19:07:38.999Z,97107.78
2023-12-09T19:10:06.523Z,97110.63
2023-12-09T19:12:33.673Z,97102.31
2023-12-09T19:15:00.397Z,97094.06
2023-12-09T19:17:27.357Z,97094.34
2023-12-09T19:19:54.252Z,97089.97
2023-12-09T19:22:20.952Z,97083.88
2023-12-09T19:24:47.812Z,97081.44
2023-12-09T19:27:14.716Z,97078.09
2023-12-09T19:29:41.396Z,97083.47
2023-12-09T19:32:08.338Z,97078.59
2023-12-09T19:34:35.168Z,97072.09
2023-12-09T19:37:02.100Z,97061.31
2023-12-09T19:39:28.827Z,97040.97
2023-12-09T19:41:55.486Z,97026.44
2023-12-09T19:44:22.168Z,97015.31
2023-12-09T19:46:49.069Z,97015.16
2023-12-09T19:49:15.938Z,97014.84
2023-12-09T19:51:42.773Z,97003.94
2023-12-09T19:54:09.545Z,97000.78
2023-12-09T19:56:36.375Z,96996.81
2023-12-09T19:59:03.226Z,96986.78
2023-12-09T20:01:30.062Z,96984.44
2023-12-09T20:03:56.813Z,96972.38
2023-12-09T20:06:23.646Z,96965.19
2023-12-09T20:08:50.425Z,96954.06
2023-12-09T20:11:17.289Z,96957.28
2023-12-09T20:13:43.955Z,96962.63
2023-12-09T20:16:10.676Z,96958.56
2023-12-09T20:18:37.531Z,96946.69
2023-12-09T20:21:04.262Z,96949.53
2023-12-09T20:23:31.219Z,96947.09
2023-12-09T20:25:57.896Z,96939.94
2023-12-09T20:28:24.737Z,96941.25
2023-12-09T20:30:51.559Z,96941.75
2023-12-09T20:33:18.400Z,96936.38
2023-12-09T20:35:45.233Z,96930.69
2023-12-09T20:38:11.938Z,96928.25
2023-12-09T20:40:38.586Z,96932.81
2023-12-09T20:43:05.404Z,96940.78
2023-12-09T20:45:32.165Z,96931.13
2023-12-09T20:47:58.920Z,96922.94
2023-12-09T20:50:25.862Z,96915.84
2023-12-09T20:52:52.598Z,96921.38
2023-12-09T20:55:19.425Z,96913.94
2023-12-09T20:57:46.247Z,96898.59
2023-12-09T21:00:13.289Z,96893.78
2023-12-09T21:02:40.096Z,96879.13
2023-12-09T21:05:06.943Z,96860.91
2023-12-09T21:07:33.733Z,96878.09
2023-12-09T21:10:00.570Z,96870.63
2023-12-09T21:12:27.878Z,96862.00
2023-12-09T21:14:54.793Z,96860.91
2023-12-09T21:17:21.675Z,96864.38
2023-12-09T21:19:48.382Z,96860.69
2023-12-09T21:22:15.081Z,96847.81
2023-12-09T21:24:42.027Z,96838.19
2023-12-09T21:27:08.877Z,96863.38
2023-12-09T21:29:35.604Z,96852.91
2023-12-09T21:32:02.293Z,96853.47
2023-12-09T21:34:28.976Z,96858.56
2023-12-09T21:36:55.705Z,96863.88
2023-12-09T21:39:22.387Z,96840.72
2023-12-09T21:41:49.053Z,96830.03
2023-12-09T21:44:15.952Z,96812.31
2023-12-09T21:46:42.636Z,96815.56
2023-12-09T21:49:09.567Z,96813.06
2023-12-09T21:51:36.335Z,96820.09
2023-12-09T21:54:03.461Z,96807.81
2023-12-09T21:56:30.093Z,96799.38
2023-12-09T21:58:56.759Z,96782.25
2023-12-09T22:01:23.534Z,96789.34
2023-12-09T22:03:50.406Z,96781.00
2023-12-09T22:06:17.551Z,96781.16
2023-12-09T22:08:44.302Z,96778.94
2023-12-09T22:11:10.931Z,96779.00
2023-12-09T22:13:37.730Z,96768.94
2023-12-09T22:16:04.402Z,96762.13
2023-12-09T22:18:31.282Z,96748.84
2023-12-09T22:20:58.264Z,96735.69
2023-12-09T22:23:25.309Z,96717.53
2023-12-09T22:25:52.025Z,96718.06
2023-12-09T22:28:18.873Z,96716.53
2023-12-09T22:30:45.597Z,96741.06
2023-12-09T22:33:12.566Z,96782.44
2023-12-09T22:35:39.533Z,96786.47
2023-12-09T22:38:06.225Z,96732.31
2023-12-09T22:40:32.987Z,96739.88
2023-12-09T22:42:59.740Z,96746.56
2023-12-09T22:45:26.631Z,96744.94
2023-12-09T22:47:53.681Z,96753.56
2023-12-09T22:50:20.444Z,96752.31
2023-12-09T22:52:47.425Z,96753.41
2023-12-09T22:55:14.133Z,96737.03
2023-12-09T22:57:40.832Z,96722.72
2023-12-09T23:00:07.730Z,96712.63
2023-12-09T23:02:34.652Z,96711.28
2023-12-09T23:05:01.348Z,96697.50
2023-12-09T23:07:27.993Z,96695.81
2023-12-09T23:09:54.816Z,96700.97
2023-12-09T23:12:21.597Z,96689.31
2023-12-09T23:14:48.269Z,96686.41
2023-12-09T23:17:15.080Z,96690.84
2023-12-09T23:19:41.914Z,96692.41
2023-12-09T23:22:08.606Z,96691.16
2023-12-09T23:24:35.542Z,96675.22
2023-12-09T23:27:02.431Z,96671.97
2023-12-09T23:29:29.178Z,96679.41
2023-12-09T23:31:55.831Z,96677.34
2023-12-09T23:34:23.510Z,96653.50
2023-12-09T23:36:50.616Z,96655.06
2023-12-09T23:39:17.389Z,96648.03
2023-12-09T23:41:44.098Z,96633.13
2023-12-09T23:44:10.800Z,96646.88
2023-12-09T23:46:37.442Z,96639.13
2023-12-09T23:49:04.381Z,96647.13
2023-12-09T23:51:31.263Z,96647.19
2023-12-09T23:53:58.265Z,96632.25
2023-12-09T23:56:24.958Z,96628.66
2023-12-09T23:58:51.597Z,96626.09
